Time;durP1;ratioP1;P1;durP2;ratioP2;P2;SDS_P1;SDS_P2;PMS_P1;PMS_P2;Temp;Humidity;BMP_temperature;BMP_pressure;BME280_temperature;BME280_humidity;BME280_pressure;Samples;Min_cycle;Max_cycle;Signal;HPM_P1;HPM_P2
2021/01/11 00:00:10;;;;;;;11.38;7.38;;;-3.60;90.50;;;;;;5033228;28;20821;-67
2021/01/11 00:02:37;;;;;;;10.55;6.78;;;-3.70;90.50;;;;;;5033364;28;20576;-67
2021/01/11 00:05:04;;;;;;;8.15;3.97;;;-3.60;90.70;;;;;;5033256;28;20198;-67
2021/01/11 00:07:29;;;;;;;6.97;4.18;;;-3.80;90.60;;;;;;5033196;28;20747;-66
2021/01/11 00:09:55;;;;;;;6.37;4.43;;;-4.10;91.10;;;;;;5033092;28;20283;-67
2021/01/11 00:12:21;;;;;;;3.77;2.80;;;-4.00;91.20;;;;;;5033385;28;20254;-68
2021/01/11 00:14:46;;;;;;;3.70;3.40;;;-4.10;91.30;;;;;;5033179;28;20570;-67
2021/01/11 00:17:12;;;;;;;8.53;3.93;;;-4.00;91.50;;;;;;5035981;28;20179;-67
2021/01/11 00:19:38;;;;;;;7.50;4.20;;;-3.90;91.40;;;;;;5037225;28;20524;-68
2021/01/11 00:22:03;;;;;;;4.73;3.50;;;-3.70;91.30;;;;;;5037033;28;20198;-67
2021/01/11 00:24:29;;;;;;;3.93;2.97;;;-3.70;91.10;;;;;;5037239;28;20254;-66
2021/01/11 00:26:56;;;;;;;8.17;3.63;;;-4.10;91.40;;;;;;5036869;28;20636;-68
2021/01/11 00:29:23;;;;;;;3.78;3.33;;;-4.10;91.60;;;;;;5037080;28;20172;-67
2021/01/11 00:31:48;;;;;;;6.25;3.85;;;-3.90;91.60;;;;;;5036736;28;20207;-67
2021/01/11 00:34:15;;;;;;;5.73;5.07;;;-3.80;91.40;;;;;;5037009;28;20167;-67
2021/01/11 00:36:44;;;;;;;5.15;3.92;;;-3.90;91.10;;;;;;5036464;28;20211;-66
2021/01/11 00:39:10;;;;;;;6.28;3.88;;;-4.20;91.30;;;;;;5036709;28;20167;-67
2021/01/11 00:41:36;;;;;;;8.77;5.23;;;-4.10;91.60;;;;;;5036594;28;20244;-67
2021/01/11 00:44:01;;;;;;;6.90;5.10;;;-3.80;91.40;;;;;;5036749;28;20164;-66
2021/01/11 00:46:29;;;;;;;5.33;4.17;;;-3.80;91.00;;;;;;5036367;28;20230;-67
2021/01/11 00:48:56;;;;;;;8.55;5.18;;;-3.70;90.80;;;;;;5036762;28;20220;-67
2021/01/11 00:51:22;;;;;;;4.93;4.28;;;-3.70;90.40;;;;;;5036472;28;20200;-67
2021/01/11 00:53:48;;;;;;;6.10;4.65;;;-4.00;90.70;;;;;;5036311;28;20639;-67
2021/01/11 00:56:15;;;;;;;6.38;4.82;;;-4.10;90.80;;;;;;5036139;28;20203;-67
2021/01/11 00:58:41;;;;;;;5.07;2.97;;;-4.30;91.20;;;;;;5036379;28;20209;-66
2021/01/11 01:01:08;;;;;;;9.50;5.70;;;-4.20;91.50;;;;;;5036257;28;20214;-67
2021/01/11 01:03:35;;;;;;;5.03;4.53;;;-4.30;91.10;;;;;;5036197;28;20291;-67
2021/01/11 01:06:01;;;;;;;4.40;4.03;;;-4.40;91.40;;;;;;5035867;28;20207;-67
2021/01/11 01:08:27;;;;;;;5.33;3.73;;;-4.30;91.20;;;;;;5036185;28;20167;-67
2021/01/11 01:10:52;;;;;;;10.33;4.87;;;-4.50;90.80;;;;;;5035875;28;20437;-67
2021/01/11 01:13:18;;;;;;;5.70;4.30;;;-4.50;90.80;;;;;;5036173;28;20175;-67
2021/01/11 01:15:44;;;;;;;5.60;5.10;;;-4.50;91.40;;;;;;5035812;28;20202;-67
2021/01/11 01:18:09;;;;;;;4.13;3.00;;;-4.40;91.00;;;;;;5035900;28;20613;-67
2021/01/11 01:20:35;;;;;;;5.53;3.07;;;-4.70;90.70;;;;;;5035832;28;20191;-67
2021/01/11 01:23:01;;;;;;;7.27;3.77;;;-4.80;91.10;;;;;;5036258;28;20706;-67
2021/01/11 01:25:26;;;;;;;4.10;3.80;;;-4.70;90.90;;;;;;5035652;28;20221;-67
2021/01/11 01:27:52;;;;;;;4.70;3.20;;;-4.80;91.00;;;;;;5034946;28;20257;-67
2021/01/11 01:30:18;;;;;;;10.70;4.23;;;-4.90;91.00;;;;;;5035838;28;20198;-67
2021/01/11 01:32:44;;;;;;;4.97;3.72;;;-5.10;91.50;;;;;;5035684;28;20652;-67
2021/01/11 01:35:10;;;;;;;8.30;4.03;;;-5.20;91.70;;;;;;5035541;28;20198;-67
2021/01/11 01:37:37;;;;;;;3.45;3.15;;;-5.20;91.00;;;;;;5035447;28;20545;-68
2021/01/11 01:40:04;;;;;;;4.00;3.70;;;-5.00;91.00;;;;;;5035478;28;20198;-67
2021/01/11 01:42:29;;;;;;;3.60;3.28;;;-5.10;91.40;;;;;;5035709;28;20268;-67
2021/01/11 01:44:55;;;;;;;4.13;3.77;;;-5.20;91.40;;;;;;5035470;28;20222;-67
2021/01/11 01:47:21;;;;;;;5.87;5.00;;;-5.10;91.40;;;;;;5035340;28;20178;-67
2021/01/11 01:49:47;;;;;;;2.80;2.60;;;-5.20;91.50;;;;;;5035309;28;20171;-67
2021/01/11 01:52:13;;;;;;;3.03;2.80;;;-5.50;92.20;;;;;;5035363;28;20182;-67
2021/01/11 01:54:40;;;;;;;4.33;2.47;;;-5.50;92.60;;;;;;5035135;28;20187;-67
2021/01/11 01:57:07;;;;;;;5.18;3.28;;;-5.50;93.00;;;;;;5035281;28;20791;-67
2021/01/11 01:59:32;;;;;;;6.35;4.63;;;-5.50;92.90;;;;;;5035236;28;20629;-67
2021/01/11 02:02:02;;;;;;;9.47;2.67;;;-5.30;93.00;;;;;;5035104;28;20230;-67
2021/01/11 02:04:29;;;;;;;8.68;4.05;;;-5.20;92.70;;;;;;5035135;28;20229;-67
2021/01/11 02:07:18;;;;;;;5.18;3.00;;;-5.00;92.40;;;;;;5035175;28;20224;-67
2021/01/11 02:09:55;;;;;;;4.40;3.72;;;-4.90;92.10;;;;;;5035240;28;20167;-67
2021/01/11 02:12:28;;;;;;;3.55;3.22;;;-5.00;91.50;;;;;;5035223;28;20158;-67
2021/01/11 02:15:02;;;;;;;4.38;3.97;;;-4.90;92.00;;;;;;5034900;28;20203;-67
2021/01/11 02:17:40;;;;;;;3.15;2.95;;;-4.90;91.70;;;;;;5034703;28;20188;-67
2021/01/11 02:20:24;;;;;;;4.82;3.38;;;-5.00;91.20;;;;;;5034895;28;20542;-67
2021/01/11 02:23:15;;;;;;;3.20;2.90;;;-5.00;91.30;;;;;;5034772;28;20570;-67
2021/01/11 02:25:42;;;;;;;5.57;3.95;;;-5.00;91.70;;;;;;5034572;28;20257;-67
2021/01/11 02:28:38;;;;;;;4.40;3.95;;;-5.00;91.70;;;;;;5034784;28;20178;-67
2021/01/11 02:31:05;;;;;;;6.38;4.57;;;-4.80;91.30;;;;;;5034542;28;20738;-67
2021/01/11 02:33:32;;;;;;;4.43;4.03;;;-4.90;90.60;;;;;;5034590;28;20540;-67
2021/01/11 02:36:04;;;;;;;7.32;4.25;;;-4.90;90.40;;;;;;5034300;28;20213;-67
2021/01/11 02:38:31;;;;;;;2.85;2.67;;;-4.90;90.40;;;;;;5034569;28;20169;-67
2021/01/11 02:40:57;;;;;;;3.42;3.05;;;-5.00;90.40;;;;;;5034513;28;20213;-67
2021/01/11 02:43:22;;;;;;;4.70;4.30;;;-5.10;90.30;;;;;;5034409;28;20640;-67
2021/01/11 02:45:48;;;;;;;9.03;2.97;;;-5.10;90.30;;;;;;5034119;28;20434;-66
2021/01/11 02:48:35;;;;;;;5.40;5.00;;;-5.10;90.20;;;;;;5034500;28;20245;-67
2021/01/11 02:51:21;;;;;;;2.90;2.60;;;-5.40;89.70;;;;;;5034224;28;20233;-67
2021/01/11 02:54:05;;;;;;;5.00;4.25;;;-5.50;90.40;;;;;;5034213;28;20170;-67
2021/01/11 02:56:54;;;;;;;5.07;3.67;;;-5.60;91.40;;;;;;5033918;28;20207;-67
2021/01/11 02:59:47;;;;;;;3.92;3.67;;;-5.50;91.60;;;;;;5034092;28;20163;-67
2021/01/11 03:02:15;;;;;;;3.92;3.58;;;-5.40;91.10;;;;;;5025867;28;20346;-67
2021/01/11 03:04:41;;;;;;;8.40;4.50;;;-5.50;90.50;;;;;;5034056;28;20655;-68
2021/01/11 03:07:09;;;;;;;4.07;3.45;;;-5.70;90.50;;;;;;5033878;28;20167;-67
2021/01/11 03:09:41;;;;;;;3.65;2.75;;;-5.60;90.80;;;;;;5034030;28;20609;-67
2021/01/11 03:12:08;;;;;;;6.22;5.72;;;-5.60;90.60;;;;;;5034063;28;20183;-67
2021/01/11 03:14:34;;;;;;;2.03;1.92;;;-5.80;90.80;;;;;;5033704;28;20171;-67
2021/01/11 03:17:00;;;;;;;4.13;3.83;;;-5.90;91.30;;;;;;5033666;28;20216;-67
2021/01/11 03:19:25;;;;;;;2.87;2.67;;;-5.80;91.20;;;;;;5034190;28;20402;-67
2021/01/11 03:21:51;;;;;;;7.30;4.83;;;-5.70;91.10;;;;;;5033664;28;20194;-67
2021/01/11 03:24:19;;;;;;;2.57;2.40;;;-5.70;90.90;;;;;;5033658;28;20198;-67
2021/01/11 03:26:45;;;;;;;4.25;3.10;;;-5.60;90.60;;;;;;5033584;28;20233;-67
2021/01/11 03:29:15;;;;;;;6.03;4.18;;;-5.70;90.70;;;;;;5033810;28;20207;-67
2021/01/11 03:31:41;;;;;;;2.50;1.83;;;-5.80;90.90;;;;;;5033485;28;20250;-67
2021/01/11 03:34:08;;;;;;;4.63;3.38;;;-5.90;91.20;;;;;;5033766;28;20226;-67
2021/01/11 03:36:34;;;;;;;4.88;4.65;;;-5.80;91.80;;;;;;5033305;28;20195;-67
2021/01/11 03:38:59;;;;;;;2.97;2.85;;;-5.90;92.40;;;;;;5033627;28;20179;-67
2021/01/11 03:41:25;;;;;;;6.37;5.77;;;-5.90;92.00;;;;;;5033404;28;20245;-67
2021/01/11 03:43:51;;;;;;;10.77;5.23;;;-6.00;91.40;;;;;;5033706;28;20175;-67
2021/01/11 03:46:17;;;;;;;6.20;3.37;;;-6.00;91.10;;;;;;5033258;28;20174;-67
2021/01/11 03:48:44;;;;;;;7.30;3.28;;;-6.00;90.60;;;;;;5033646;28;20174;-67
2021/01/11 03:51:11;;;;;;;3.25;2.85;;;-6.00;90.60;;;;;;5032699;28;20195;-67
2021/01/11 03:53:37;;;;;;;3.70;1.77;;;-6.00;90.30;;;;;;5033032;28;20648;-67
2021/01/11 03:56:06;;;;;;;5.00;4.50;;;-6.30;90.30;;;;;;5033010;28;20218;-66
2021/01/11 03:58:32;;;;;;;3.15;1.95;;;-6.30;90.60;;;;;;5033215;28;20171;-67
2021/01/11 04:00:59;;;;;;;5.10;2.60;;;-6.40;90.40;;;;;;5031843;28;20202;-66
2021/01/11 04:03:26;;;;;;;3.38;3.08;;;-6.60;91.10;;;;;;5033268;28;20400;-67
2021/01/11 04:05:52;;;;;;;4.35;3.10;;;-6.70;91.30;;;;;;5033081;28;20209;-67
2021/01/11 04:08:17;;;;;;;3.05;2.85;;;-6.60;91.10;;;;;;5033431;28;20175;-67
2021/01/11 04:10:43;;;;;;;6.73;2.90;;;-6.50;90.80;;;;;;5033387;28;20199;-67
2021/01/11 04:13:09;;;;;;;2.77;2.60;;;-6.60;90.60;;;;;;5033210;28;20245;-67
2021/01/11 04:15:35;;;;;;;7.50;4.33;;;-6.90;91.40;;;;;;5033121;28;20206;-67
2021/01/11 04:18:00;;;;;;;3.90;2.50;;;-6.90;92.10;;;;;;5033517;28;20163;-66
2021/01/11 04:20:27;;;;;;;2.33;2.13;;;-6.80;92.20;;;;;;5033108;28;20899;-67
2021/01/11 04:22:52;;;;;;;3.03;2.88;;;-6.80;92.10;;;;;;5033032;28;20542;-66
2021/01/11 04:25:18;;;;;;;4.10;2.93;;;-6.80;91.80;;;;;;5033011;28;20197;-67
2021/01/11 04:27:44;;;;;;;2.23;1.57;;;-6.90;91.40;;;;;;5033065;28;20409;-67
2021/01/11 04:30:11;;;;;;;2.83;2.07;;;-6.90;91.10;;;;;;5033369;28;20194;-67
2021/01/11 04:32:36;;;;;;;3.92;3.28;;;-7.00;91.20;;;;;;5033195;28;20237;-67
2021/01/11 04:35:07;;;;;;;4.25;3.90;;;-7.00;91.00;;;;;;5033132;28;20198;-67
2021/01/11 04:37:33;;;;;;;3.95;3.55;;;-7.00;91.00;;;;;;5033264;28;20168;-67
2021/01/11 04:39:58;;;;;;;4.87;4.20;;;-7.00;90.80;;;;;;5032971;28;20183;-67
2021/01/11 04:42:37;;;;;;;1.90;1.80;;;-6.90;90.80;;;;;;5033073;28;20642;-67
2021/01/11 04:45:03;;;;;;;2.47;2.28;;;-6.90;90.50;;;;;;5033138;28;20210;-67
2021/01/11 04:47:29;;;;;;;4.03;3.73;;;-6.90;90.40;;;;;;5032839;28;20174;-67
2021/01/11 04:49:56;;;;;;;3.25;2.75;;;-6.90;90.30;;;;;;5032865;28;20863;-67
2021/01/11 04:52:22;;;;;;;4.68;4.30;;;-7.10;90.40;;;;;;5032849;28;20171;-67
2021/01/11 04:54:51;;;;;;;2.67;2.55;;;-7.10;90.70;;;;;;5032849;28;20567;-66
2021/01/11 04:57:22;;;;;;;1.67;1.58;;;-7.10;90.60;;;;;;5032615;28;20171;-66
2021/01/11 04:59:49;;;;;;;2.33;2.20;;;-7.00;90.40;;;;;;5032990;28;20186;-67
2021/01/11 05:02:22;;;;;;;3.13;2.75;;;-7.00;90.60;;;;;;5032769;28;20241;-66
2021/01/11 05:04:48;;;;;;;6.30;3.65;;;-7.30;91.30;;;;;;5036063;28;20171;-67
2021/01/11 05:07:21;;;;;;;4.25;2.88;;;-7.20;91.70;;;;;;5036094;28;20178;-67
2021/01/11 05:09:47;;;;;;;5.32;4.82;;;-7.20;91.80;;;;;;5036383;28;20159;-67
2021/01/11 05:12:14;;;;;;;7.50;4.23;;;-7.10;91.70;;;;;;5036150;28;20171;-67
2021/01/11 05:14:41;;;;;;;5.00;2.10;;;-7.00;91.30;;;;;;5036159;28;20911;-67
2021/01/11 05:17:10;;;;;;;7.38;6.85;;;-7.00;90.60;;;;;;5036015;28;20301;-67
2021/01/11 05:19:37;;;;;;;3.05;2.25;;;-7.10;90.10;;;;;;5035991;28;20167;-66
2021/01/11 05:22:02;;;;;;;2.42;2.33;;;-7.10;89.80;;;;;;5035926;28;20271;-67
2021/01/11 05:24:37;;;;;;;1.80;1.70;;;-7.20;89.40;;;;;;5034738;28;20258;-67
2021/01/11 05:27:07;;;;;;;1.45;1.45;;;-7.20;89.40;;;;;;5035839;28;20413;-67
2021/01/11 05:29:34;;;;;;;1.27;1.27;;;-7.40;89.50;;;;;;5035985;28;20525;-67
2021/01/11 05:32:02;;;;;;;3.17;2.72;;;-7.60;90.30;;;;;;5035701;28;20248;-67
2021/01/11 05:35:00;;;;;;;4.95;4.65;;;-7.50;90.50;;;;;;5035861;28;20167;-67
2021/01/11 05:37:40;;;;;;;3.47;3.22;;;-7.40;90.40;;;;;;5002759;28;20183;-67
2021/01/11 05:40:12;;;;;;;2.63;2.53;;;-7.40;90.10;;;;;;5035643;28;20182;-66
2021/01/11 05:42:39;;;;;;;3.30;3.05;;;-7.60;90.50;;;;;;5035498;28;20632;-66
2021/01/11 05:45:09;;;;;;;11.73;2.85;;;-7.60;91.10;;;;;;5035525;28;20225;-67
2021/01/11 05:47:51;;;;;;;2.05;1.95;;;-7.60;91.50;;;;;;5035323;28;20171;-66
2021/01/11 05:50:17;;;;;;;3.97;3.22;;;-7.70;91.40;;;;;;5035535;28;20191;-68
2021/01/11 05:52:43;;;;;;;5.40;5.10;;;-7.60;91.40;;;;;;5035131;28;20584;-66
2021/01/11 05:55:29;;;;;;;3.23;2.57;;;-7.60;91.50;;;;;;5035379;28;20480;-65
2021/01/11 05:57:59;;;;;;;5.38;3.25;;;-7.50;91.40;;;;;;5035344;28;20167;-66
2021/01/11 06:00:29;;;;;;;3.30;2.50;;;-7.40;90.80;;;;;;5034915;28;20207;-67
2021/01/11 06:02:56;;;;;;;2.10;1.98;;;-7.30;90.20;;;;;;5035368;28;20159;-66
2021/01/11 06:05:22;;;;;;;4.28;2.47;;;-7.30;89.70;;;;;;5034966;28;20182;-68
2021/01/11 06:07:49;;;;;;;1.63;1.52;;;-7.40;89.50;;;;;;5034994;28;20173;-68
2021/01/11 06:10:16;;;;;;;5.32;3.53;;;-7.40;89.10;;;;;;5034985;28;20260;-67
2021/01/11 06:12:44;;;;;;;3.85;3.17;;;-7.40;89.00;;;;;;5035137;28;20177;-67
2021/01/11 06:15:12;;;;;;;2.38;1.88;;;-7.50;88.90;;;;;;5034307;28;20197;-66
2021/01/11 06:17:42;;;;;;;3.33;3.10;;;-7.70;89.50;;;;;;5034937;28;20206;-69
2021/01/11 06:20:13;;;;;;;3.55;2.28;;;-7.70;90.10;;;;;;5034752;28;20186;-66
2021/01/11 06:22:45;;;;;;;3.97;3.50;;;-7.60;90.20;;;;;;5035178;28;20256;-66
2021/01/11 06:25:19;;;;;;;1.65;1.65;;;-7.60;90.00;;;;;;5033677;28;20628;-68
2021/01/11 06:27:59;;;;;;;3.55;3.25;;;-7.60;89.50;;;;;;5035279;28;20611;-69
2021/01/11 06:30:34;;;;;;;5.43;3.53;;;-7.60;89.00;;;;;;5035037;28;20216;-67
2021/01/11 06:33:06;;;;;;;2.50;2.13;;;-7.60;88.80;;;;;;5034153;28;20249;-67
2021/01/11 06:35:49;;;;;;;1.95;1.63;;;-7.70;88.60;;;;;;5034301;28;20210;-68
2021/01/11 06:38:28;;;;;;;2.13;2.03;;;-7.70;88.00;;;;;;5034600;28;20625;-67
2021/01/11 06:41:03;;;;;;;3.25;3.05;;;-7.80;87.90;;;;;;5034330;28;20190;-67
2021/01/11 06:43:42;;;;;;;2.72;2.45;;;-7.80;87.80;;;;;;5033903;28;20598;-67
2021/01/11 06:46:32;;;;;;;3.67;3.47;;;-7.70;87.90;;;;;;5034433;28;20178;-67
2021/01/11 06:49:00;;;;;;;5.57;3.13;;;-7.70;87.60;;;;;;5034526;28;20189;-68
2021/01/11 06:51:31;;;;;;;0.88;0.85;;;-7.80;87.40;;;;;;5034085;28;20261;-67
2021/01/11 06:54:13;;;;;;;1.08;1.08;;;-7.80;88.30;;;;;;5032964;28;20182;-68
2021/01/11 06:59:08;;;;;;;3.00;2.55;;;-8.00;88.30;;;;;;5090185;28;21059;-66
2021/01/11 07:01:38;;;;;;;3.03;2.30;;;-8.00;88.90;;;;;;5090702;28;20208;-66
2021/01/11 07:04:05;;;;;;;3.58;3.25;;;-7.90;88.50;;;;;;5089998;28;20590;-65
2021/01/11 07:06:41;;;;;;;2.05;1.77;;;-7.90;87.90;;;;;;5090632;28;20177;-66
2021/01/11 07:09:14;;;;;;;2.20;1.80;;;-7.90;87.00;;;;;;5090747;28;20165;-66
2021/01/11 07:11:42;;;;;;;1.60;1.50;;;-8.00;86.20;;;;;;5090456;28;20216;-66
2021/01/11 07:14:10;;;;;;;3.13;2.85;;;-8.10;86.50;;;;;;5090987;28;20647;-66
2021/01/11 07:16:51;;;;;;;5.68;2.85;;;-8.10;86.80;;;;;;5090476;28;20267;-65
2021/01/11 07:19:42;;;;;;;1.50;1.40;;;-8.10;87.30;;;;;;5090717;28;20191;-66
2021/01/11 07:22:12;;;;;;;1.73;1.60;;;-8.00;88.10;;;;;;5090720;28;20172;-66
2021/01/11 07:24:42;;;;;;;6.75;3.50;;;-7.90;88.30;;;;;;5090782;28;20180;-66
2021/01/11 07:27:09;;;;;;;4.63;3.08;;;-7.80;88.50;;;;;;5090326;28;20208;-66
2021/01/11 07:29:35;;;;;;;8.07;3.55;;;-7.70;88.60;;;;;;5090722;28;20528;-66
2021/01/11 07:32:01;;;;;;;3.90;2.80;;;-7.70;88.00;;;;;;5090575;28;20558;-66
2021/01/11 07:34:27;;;;;;;2.78;2.58;;;-7.60;87.30;;;;;;5090479;28;20558;-66
2021/01/11 07:36:54;;;;;;;2.03;1.50;;;-7.60;86.50;;;;;;5088872;28;20614;-66
2021/01/11 07:39:26;;;;;;;1.52;1.52;;;-7.60;86.00;;;;;;5089816;28;20169;-68
2021/01/11 07:42:03;;;;;;;2.90;2.70;;;-7.60;85.50;;;;;;5090296;28;20231;-67
2021/01/11 07:44:32;;;;;;;4.32;1.88;;;-7.70;85.50;;;;;;5090414;28;20243;-66
2021/01/11 07:46:58;;;;;;;2.75;2.58;;;-7.70;85.90;;;;;;5090431;28;20173;-66
2021/01/11 07:49:26;;;;;;;4.13;2.55;;;-7.60;86.10;;;;;;5090513;28;20193;-65
2021/01/11 07:51:53;;;;;;;3.20;3.10;;;-7.50;85.80;;;;;;5090658;28;20197;-65
2021/01/11 07:54:21;;;;;;;3.08;2.25;;;-7.50;85.60;;;;;;5090047;28;20176;-65
2021/01/11 07:56:49;;;;;;;1.52;1.42;;;-7.50;84.50;;;;;;5089602;28;20193;-66
2021/01/11 07:59:15;;;;;;;4.25;3.95;;;-7.50;84.10;;;;;;5090395;28;20222;-66
2021/01/11 08:01:48;;;;;;;4.72;3.53;;;-7.50;84.10;;;;;;5090259;28;20184;-66
2021/01/11 08:04:14;;;;;;;5.13;2.80;;;-7.40;84.20;;;;;;5090404;28;20169;-68
2021/01/11 08:06:52;;;;;;;7.65;5.72;;;-7.30;83.90;;;;;;5089848;28;20173;-69
2021/01/11 08:09:19;;;;;;;3.83;3.58;;;-7.30;83.10;;;;;;5081770;28;20173;-68
2021/01/11 08:11:46;;;;;;;9.52;6.32;;;-7.30;82.60;;;;;;5076479;28;20260;-68
2021/01/11 08:17:44;;;;;;;3.53;1.75;;;-7.20;82.70;;;;;;5076295;28;20259;-68
2021/01/11 08:23:32;;;;;;;5.30;4.78;;;-7.00;82.00;;;;;;5076774;28;20153;-68
2021/01/11 08:25:59;;;;;;;2.93;2.00;;;-7.10;81.20;;;;;;5075820;28;20166;-68
2021/01/11 08:28:27;;;;;;;7.60;3.53;;;-7.20;82.70;;;;;;5076166;28;20399;-68
2021/01/11 08:30:54;;;;;;;6.40;3.78;;;-6.60;84.80;;;;;;5076023;28;20569;-68
2021/01/11 08:33:20;;;;;;;10.73;7.72;;;-5.20;82.80;;;;;;5076126;28;20577;-68
2021/01/11 08:35:46;;;;;;;7.13;6.60;;;-3.70;78.60;;;;;;5076077;28;20258;-70
2021/01/11 08:38:12;;;;;;;6.60;5.97;;;-2.30;72.70;;;;;;5075736;28;20605;-69
2021/01/11 08:40:38;;;;;;;6.38;5.78;;;-0.90;64.90;;;;;;5075404;28;20276;-66
2021/01/11 08:43:21;;;;;;;9.57;5.90;;;0.10;58.30;;;;;;5075847;28;20201;-66
2021/01/11 08:45:52;;;;;;;7.13;6.38;;;0.70;54.60;;;;;;5075833;28;20435;-66
2021/01/11 08:48:25;;;;;;;8.73;6.05;;;1.10;52.30;;;;;;5076172;28;20635;-66
2021/01/11 08:50:50;;;;;;;5.10;4.60;;;1.50;50.80;;;;;;5075841;28;20272;-66
2021/01/11 08:53:30;;;;;;;8.47;5.40;;;1.90;49.90;;;;;;5075687;28;20295;-66
2021/01/11 08:55:56;;;;;;;5.88;4.45;;;2.60;48.60;;;;;;5075710;28;20666;-66
2021/01/11 08:58:23;;;;;;;8.60;5.95;;;3.20;47.00;;;;;;5075121;28;20208;-66
2021/01/11 09:00:48;;;;;;;10.05;7.80;;;3.90;45.40;;;;;;5075929;28;20194;-66
2021/01/11 09:03:14;;;;;;;12.50;7.90;;;4.80;43.00;;;;;;5075508;28;20227;-66
2021/01/11 09:05:42;;;;;;;8.03;5.40;;;5.60;40.90;;;;;;5074935;28;20168;-66
2021/01/11 09:08:19;;;;;;;6.65;5.85;;;6.10;39.10;;;;;;5075229;28;20460;-67
2021/01/11 09:10:45;;;;;;;8.75;6.60;;;6.80;37.70;;;;;;5075462;28;20192;-65
2021/01/11 09:13:18;;;;;;;7.20;6.43;;;;;;;;;;5075936;28;20174;-67
2021/01/11 09:15:44;;;;;;;8.90;6.18;;;8.40;40.00;;;;;;5074766;28;20529;-67
2021/01/11 09:18:11;;;;;;;7.17;5.30;;;8.90;46.70;;;;;;5075255;28;20197;-68
2021/01/11 09:20:38;;;;;;;6.38;5.65;;;9.10;33.30;;;;;;5074460;28;20190;-68
2021/01/11 09:23:05;;;;;;;7.20;5.25;;;9.60;62.30;;;;;;5075089;28;20542;-67
2021/01/11 09:25:32;;;;;;;14.13;9.65;;;9.70;45.90;;;;;;5075146;28;20165;-67
2021/01/11 09:27:59;;;;;;;8.57;7.75;;;9.20;58.20;;;;;;5075356;28;20185;-67
2021/01/11 09:30:27;;;;;;;7.43;5.90;;;10.10;56.70;;;;;;5074786;28;20271;-67
2021/01/11 09:32:53;;;;;;;8.05;5.35;;;10.30;44.40;;;;;;5074934;28;20181;-67
2021/01/11 09:35:19;;;;;;;8.40;6.60;;;10.20;38.10;;;;;;5074792;28;20173;-67
2021/01/11 09:37:45;;;;;;;11.60;8.60;;;10.20;29.40;;;;;;5074890;28;20235;-67
2021/01/11 09:40:11;;;;;;;7.70;6.17;;;10.30;29.30;;;;;;5074770;28;20186;-68
2021/01/11 09:42:37;;;;;;;7.63;6.88;;;10.50;29.00;;;;;;5074441;28;20492;-67
2021/01/11 09:45:04;;;;;;;8.00;5.20;;;10.90;41.60;;;;;;5074456;28;20607;-68
2021/01/11 09:47:30;;;;;;;6.45;5.82;;;11.10;62.10;;;;;;5074409;28;20198;-68
2021/01/11 09:49:55;;;;;;;7.50;5.67;;;11.30;38.20;;;;;;5074536;28;20184;-69
2021/01/11 09:52:22;;;;;;;7.40;6.63;;;11.20;38.00;;;;;;5074796;28;20226;-70
2021/01/11 09:54:48;;;;;;;7.55;5.35;;;11.20;28.50;;;;;;5074619;28;20212;-70
2021/01/11 09:57:14;;;;;;;10.37;7.13;;;11.40;28.50;;;;;;5072436;28;20677;-69
2021/01/11 09:59:39;;;;;;;9.00;5.70;;;11.50;28.70;;;;;;5074157;28;20177;-68
2021/01/11 10:02:07;;;;;;;7.63;6.73;;;11.70;28.60;;;;;;5074442;28;20176;-69
2021/01/11 10:04:32;;;;;;;8.98;7.40;;;11.40;28.70;;;;;;5074223;28;20486;-69
2021/01/11 10:06:58;;;;;;;6.20;5.57;;;10.90;28.80;;;;;;5073947;28;20302;-67
2021/01/11 10:09:29;;;;;;;10.90;8.13;;;10.80;29.40;;;;;;5074527;28;20180;-69
2021/01/11 10:11:56;;;;;;;11.93;7.80;;;10.80;29.30;;;;;;5074217;28;20234;-69
2021/01/11 10:14:22;;;;;;;10.57;8.30;;;11.00;29.60;;;;;;5074060;28;20172;-69
2021/01/11 10:16:52;;;;;;;13.50;9.13;;;11.40;29.40;;;;;;5073907;28;20172;-69
2021/01/11 10:19:22;;;;;;;14.23;10.50;;;11.40;29.10;;;;;;5074090;28;20183;-68
2021/01/11 10:21:49;;;;;;;9.20;7.95;;;11.60;28.80;;;;;;5074372;28;20552;-68
2021/01/11 10:24:16;;;;;;;10.13;6.88;;;11.60;29.40;;;;;;5073892;28;20185;-68
2021/01/11 10:26:50;;;;;;;11.63;8.88;;;11.70;29.50;;;;;;5073803;28;20502;-69
2021/01/11 10:29:17;;;;;;;12.15;8.30;;;11.60;28.80;;;;;;5074120;28;20241;-69
2021/01/11 10:31:44;;;;;;;6.57;5.95;;;11.80;29.10;;;;;;5073409;28;20291;-69
2021/01/11 10:34:10;;;;;;;8.25;6.70;;;11.90;29.30;;;;;;5074187;28;20682;-68
2021/01/11 10:36:47;;;;;;;11.85;7.65;;;11.80;28.90;;;;;;5073320;28;20703;-68
2021/01/11 10:39:14;;;;;;;8.90;8.00;;;11.40;29.00;;;;;;5074037;28;20575;-68
2021/01/11 10:41:41;;;;;;;11.13;7.70;;;11.00;29.90;;;;;;5073745;28;20183;-68
2021/01/11 10:44:07;;;;;;;8.63;6.85;;;10.50;30.00;;;;;;5073848;28;20186;-68
2021/01/11 10:46:36;;;;;;;8.05;7.18;;;10.50;30.60;;;;;;5073305;28;20521;-68
2021/01/11 10:49:03;;;;;;;9.90;8.00;;;10.50;31.10;;;;;;5074096;28;20250;-68
2021/01/11 10:51:32;;;;;;;10.55;7.80;;;10.40;31.20;;;;;;5073348;28;20309;-68
2021/01/11 10:53:57;;;;;;;8.05;6.22;;;10.40;31.40;;;;;;5073543;28;20166;-68
2021/01/11 10:56:23;;;;;;;9.53;6.30;;;10.20;32.00;;;;;;5071985;28;20179;-68
2021/01/11 10:58:49;;;;;;;10.40;6.70;;;9.90;33.10;;;;;;5073097;28;20471;-68
2021/01/11 11:01:15;;;;;;;12.80;8.05;;;9.70;33.60;;;;;;5073887;28;20201;-68
2021/01/11 11:03:42;;;;;;;10.30;6.70;;;9.50;33.90;;;;;;5073963;28;20166;-68
2021/01/11 11:06:08;;;;;;;7.32;6.10;;;9.30;34.70;;;;;;5072622;28;20404;-69
2021/01/11 11:08:34;;;;;;;10.10;6.53;;;9.00;35.20;;;;;;5073486;28;20631;-68
2021/01/11 11:10:59;;;;;;;7.63;6.72;;;8.40;35.90;;;;;;5073578;28;20189;-69
2021/01/11 11:13:25;;;;;;;9.47;6.27;;;7.60;37.40;;;;;;5073540;28;20212;-68
2021/01/11 11:15:51;;;;;;;9.37;7.40;;;7.20;38.40;;;;;;5073321;28;20410;-68
2021/01/11 11:18:17;;;;;;;7.10;6.37;;;6.50;39.10;;;;;;5072525;28;20197;-68
2021/01/11 11:20:47;;;;;;;10.87;6.53;;;5.70;40.50;;;;;;5073022;28;20434;-67
2021/01/11 11:23:13;;;;;;;11.77;7.78;;;4.90;42.00;;;;;;5073315;28;20241;-69
2021/01/11 11:25:44;;;;;;;5.65;5.15;;;4.20;43.50;;;;;;5073176;28;20567;-70
2021/01/11 11:28:10;;;;;;;7.82;6.75;;;4.10;45.20;;;;;;5073576;28;20177;-69
2021/01/11 11:30:36;;;;;;;8.88;6.82;;;4.10;46.00;;;;;;5073304;28;20198;-67
2021/01/11 11:33:02;;;;;;;10.30;6.30;;;3.90;46.60;;;;;;5072927;28;20172;-69
2021/01/11 11:35:29;;;;;;;8.90;6.78;;;3.90;47.40;;;;;;5073132;28;20206;-68
2021/01/11 11:37:55;;;;;;;8.20;6.40;;;3.90;48.00;;;;;;5073155;28;20214;-70
2021/01/11 11:40:21;;;;;;;7.90;5.33;;;4.10;47.60;;;;;;5073042;28;20576;-69
2021/01/11 11:42:47;;;;;;;7.60;5.30;;;4.10;47.70;;;;;;5073391;28;20758;-67
2021/01/11 11:45:14;;;;;;;7.70;5.97;;;4.10;47.70;;;;;;5076412;28;20167;-66
2021/01/11 11:47:42;;;;;;;7.03;5.47;;;4.10;48.10;;;;;;5076514;28;20245;-66
2021/01/11 11:50:16;;;;;;;7.70;6.32;;;4.10;48.20;;;;;;5076487;28;20189;-66
2021/01/11 11:52:42;;;;;;;8.93;6.50;;;3.80;48.40;;;;;;5076196;28;20179;-67
2021/01/11 11:55:12;;;;;;;12.97;7.50;;;3.60;48.30;;;;;;5076542;28;20191;-66
2021/01/11 11:57:41;;;;;;;7.65;5.70;;;3.40;48.70;;;;;;5075964;28;20476;-66
2021/01/11 12:00:15;;;;;;;6.63;4.57;;;3.00;49.50;;;;;;5077103;28;20186;-67
2021/01/11 12:02:46;;;;;;;14.20;5.82;;;2.80;50.30;;;;;;5076698;28;20175;-67
2021/01/11 12:05:14;;;;;;;9.35;5.90;;;2.50;51.30;;;;;;5076674;28;20625;-66
2021/01/11 12:07:40;;;;;;;12.40;6.03;;;2.20;52.00;;;;;;5076780;28;20221;-68
2021/01/11 12:10:07;;;;;;;7.38;6.50;;;1.60;52.40;;;;;;5076690;28;20197;-66
2021/01/11 12:12:33;;;;;;;11.50;5.85;;;1.10;53.50;;;;;;5076483;28;20581;-66
2021/01/11 12:14:59;;;;;;;8.13;6.00;;;0.90;54.10;;;;;;5076384;28;20182;-66
2021/01/11 12:17:31;;;;;;;9.63;5.80;;;1.00;54.60;;;;;;5076128;28;20342;-66
2021/01/11 12:19:57;;;;;;;6.55;4.93;;;1.00;55.30;;;;;;5076361;28;20253;-67
2021/01/11 12:22:22;;;;;;;9.10;6.03;;;0.90;55.90;;;;;;5076613;28;20205;-67
2021/01/11 12:24:48;;;;;;;6.00;5.27;;;0.70;56.20;;;;;;5076627;28;20176;-67
2021/01/11 12:27:14;;;;;;;5.87;4.77;;;0.80;56.80;;;;;;5075711;28;20173;-66
2021/01/11 12:29:40;;;;;;;7.47;5.30;;;0.70;56.70;;;;;;5075843;28;20545;-66
2021/01/11 12:32:06;;;;;;;7.93;4.17;;;0.60;57.20;;;;;;5075824;28;20177;-66
2021/01/11 12:34:34;;;;;;;8.35;4.50;;;0.50;58.10;;;;;;5076182;28;20181;-67
2021/01/11 12:37:01;;;;;;;6.45;5.82;;;0.40;58.90;;;;;;5075488;28;20557;-66
2021/01/11 12:39:28;;;;;;;8.63;5.65;;;0.20;59.80;;;;;;5075440;28;20193;-66
2021/01/11 12:41:54;;;;;;;6.57;5.18;;;0.20;61.20;;;;;;5075551;28;20186;-66
2021/01/11 12:44:19;;;;;;;6.93;4.57;;;0.00;62.40;;;;;;5075659;28;20162;-66
2021/01/11 12:46:45;;;;;;;5.13;4.00;;;-0.30;64.30;;;;;;5075471;28;20169;-66
2021/01/11 12:49:10;;;;;;;29.30;19.93;;;-0.30;66.00;;;;;;5075665;28;20165;-66
2021/01/11 12:51:36;;;;;;;82.00;49.27;;;-0.30;67.40;;;;;;5075477;28;20189;-66
2021/01/11 12:54:02;;;;;;;26.30;18.15;;;-0.30;69.50;;;;;;5075570;28;20187;-66
2021/01/11 12:56:29;;;;;;;96.40;60.63;;;-0.30;71.10;;;;;;5075111;28;20248;-67
2021/01/11 12:58:56;;;;;;;18.38;11.48;;;-0.20;72.40;;;;;;5075308;28;20701;-66
2021/01/11 13:01:30;;;;;;;10.77;8.38;;;-0.20;73.10;;;;;;5075200;28;20523;-66
2021/01/11 13:03:58;;;;;;;8.98;6.47;;;-0.20;73.50;;;;;;5075369;28;20170;-66